PWSweather.com
Personal Weather Stations
Station Observations
ELGHEKO
El Gheko Neighborhood Association, Tucson, AZ 85710

El Gheko Neighborhood AssociationTucson, AZ 85710

Lat: 32.226108, Lon: -110.84443

Elevation: 2598

Station Type: Davis 6153 Vantage Pro 2

http://www.elgheko.us

High Low Average
Temperature 105.7°F40.9°C 76.5°F24.7°C 90.2°F32.3°C
Dew Point 64.8°F18.2°C 49.3°F9.6°C 58.8°F14.9°C
Winds 11.0 mph 17.7 kmh Calm Calm 3.0 mph SW4.8 kmh SW
Wind Gusts 21.0 mph33.8 kmh -- 6.0 mph9.7 kmh
Humidity 64% 16% 39%
Pressure 29.79 in1008.8 mb 29.65 in1004.1 mb -
Precipitation 0.00 in0.0 mm - -
Hour Temp Dew Point Humidity Winds Wind Gusts Pressure Precip Precip Rate Daily Precip Total
12:00 AM 79.9°F26.6°C 64.8°F18.2°C 60% 5.0 mph S8.0 kmh S 8.0 mph12.9 kmh 29.74 in1007.1 mb 0.00 in0.0 mm 0.00 in0.0 mm 0.00 in0.0 mm
12:05 AM 79.9°F26.6°C 63.8°F17.7°C 58% 4.0 mph S6.4 kmh S 7.0 mph11.3 kmh 29.73 in1006.8 mb 0.00 in0.0 mm 0.00 in0.0 mm 0.00 in0.0 mm
12:10 AM 80.0°F26.7°C 63.9°F17.7°C 58% 3.0 mph S4.8 kmh S 7.0 mph11.3 kmh 29.73 in1006.8 mb 0.00 in0.0 mm 0.00 in0.0 mm 0.00 in0.0 mm
12:15 AM 80.1°F26.7°C 63.5°F17.5°C 57% 4.0 mph S6.4 kmh S 7.0 mph11.3 kmh 29.73 in1006.8 mb 0.00 in0.0 mm 0.00 in0.0 mm 0.00 in0.0 mm
12:20 AM 80.3°F26.8°C 63.2°F17.3°C 56% 4.0 mph SSW6.4 kmh SSW 7.0 mph11.3 kmh 29.73 in1006.8 mb 0.00 in0.0 mm 0.00 in0.0 mm 0.00 in0.0 mm
12:25 AM 80.4°F26.9°C 63.3°F17.4°C 56% 4.0 mph S6.4 kmh S 7.0 mph11.3 kmh 29.72 in1006.4 mb 0.00 in0.0 mm 0.00 in0.0 mm 0.00 in0.0 mm
12:30 AM 80.5°F26.9°C 62.8°F17.1°C 55% 3.0 mph S4.8 kmh S 6.0 mph9.7 kmh 29.72 in1006.4 mb 0.00 in0.0 mm 0.00 in0.0 mm 0.00 in0.0 mm
12:35 AM 80.6°F27.0°C 62.4°F16.9°C 54% 2.0 mph S3.2 kmh S 5.0 mph8.0 kmh 29.72 in1006.4 mb 0.00 in0.0 mm 0.00 in0.0 mm 0.00 in0.0 mm
12:40 AM 80.7°F27.1°C 62.5°F16.9°C 54% 2.0 mph S3.2 kmh S 5.0 mph8.0 kmh 29.72 in1006.4 mb 0.00 in0.0 mm 0.00 in0.0 mm 0.00 in0.0 mm
12:45 AM 80.7°F27.1°C 62.5°F16.9°C 54% 2.0 mph S3.2 kmh S 4.0 mph6.4 kmh 29.72 in1006.4 mb 0.00 in0.0 mm 0.00 in0.0 mm 0.00 in0.0 mm
12:50 AM 80.7°F27.1°C 62.5°F16.9°C 54% 1.0 mph S1.6 kmh S 4.0 mph6.4 kmh 29.73 in1006.8 mb 0.00 in0.0 mm 0.00 in0.0 mm 0.00 in0.0 mm
12:55 AM 80.8°F27.1°C 62.6°F17.0°C 54% 1.0 mph S1.6 kmh S 3.0 mph4.8 kmh 29.73 in1006.8 mb 0.00 in0.0 mm 0.00 in0.0 mm 0.00 in0.0 mm
01:00 AM 80.8°F27.1°C 63.1°F17.3°C 55% 1.0 mph S1.6 kmh S 3.0 mph4.8 kmh 29.73 in1006.8 mb 0.00 in0.0 mm 0.00 in0.0 mm 0.00 in0.0 mm
01:05 AM 80.8°F27.1°C 63.6°F17.6°C 56% 2.0 mph S3.2 kmh S 3.0 mph4.8 kmh 29.73 in1006.8 mb 0.00 in0.0 mm 0.00 in0.0 mm 0.00 in0.0 mm
01:10 AM 80.8°F27.1°C 62.6°F17.0°C 54% 3.0 mph SW4.8 kmh SW 5.0 mph8.0 kmh 29.74 in1007.1 mb 0.00 in0.0 mm 0.00 in0.0 mm 0.00 in0.0 mm
01:15 AM 80.8°F27.1°C 62.6°F17.0°C 54% 3.0 mph SW4.8 kmh SW 5.0 mph8.0 kmh 29.73 in1006.8 mb 0.00 in0.0 mm 0.00 in0.0 mm 0.00 in0.0 mm
01:20 AM 80.8°F27.1°C 63.1°F17.3°C 55% 3.0 mph SW4.8 kmh SW 7.0 mph11.3 kmh 29.73 in1006.8 mb 0.00 in0.0 mm 0.00 in0.0 mm 0.00 in0.0 mm
01:25 AM 80.8°F27.1°C 63.1°F17.3°C 55% 4.0 mph WSW6.4 kmh WSW 8.0 mph12.9 kmh 29.73 in1006.8 mb 0.00 in0.0 mm 0.00 in0.0 mm 0.00 in0.0 mm
01:30 AM 80.8°F27.1°C 62.6°F17.0°C 54% 4.0 mph WSW6.4 kmh WSW 8.0 mph12.9 kmh 29.73 in1006.8 mb 0.00 in0.0 mm 0.00 in0.0 mm 0.00 in0.0 mm
01:35 AM 80.8°F27.1°C 63.1°F17.3°C 55% 3.0 mph WSW4.8 kmh WSW 7.0 mph11.3 kmh 29.74 in1007.1 mb 0.00 in0.0 mm 0.00 in0.0 mm 0.00 in0.0 mm
01:40 AM 80.8°F27.1°C 63.1°F17.3°C 55% 2.0 mph W3.2 kmh W 5.0 mph8.0 kmh 29.74 in1007.1 mb 0.00 in0.0 mm 0.00 in0.0 mm 0.00 in0.0 mm
01:45 AM 80.8°F27.1°C 63.6°F17.6°C 56% 1.0 mph WNW1.6 kmh WNW 4.0 mph6.4 kmh 29.74 in1007.1 mb 0.00 in0.0 mm 0.00 in0.0 mm 0.00 in0.0 mm
01:50 AM 80.7°F27.1°C 63.5°F17.5°C 56% 1.0 mph WNW1.6 kmh WNW 3.0 mph4.8 kmh 29.74 in1007.1 mb 0.00 in0.0 mm 0.00 in0.0 mm 0.00 in0.0 mm
01:55 AM 80.5°F26.9°C 63.9°F17.7°C 57% 2.0 mph WNW3.2 kmh WNW 3.0 mph4.8 kmh 29.74 in1007.1 mb 0.00 in0.0 mm 0.00 in0.0 mm 0.00 in0.0 mm
02:00 AM 80.4°F26.9°C 63.3°F17.4°C 56% 2.0 mph WNW3.2 kmh WNW 3.0 mph4.8 kmh 29.74 in1007.1 mb 0.00 in0.0 mm 0.00 in0.0 mm 0.00 in0.0 mm
02:05 AM 80.3°F26.8°C 64.2°F17.9°C 58% 2.0 mph WNW3.2 kmh WNW 4.0 mph6.4 kmh 29.74 in1007.1 mb 0.00 in0.0 mm 0.00 in0.0 mm 0.00 in0.0 mm
02:10 AM 80.2°F26.8°C 64.1°F17.8°C 58% 2.0 mph WNW3.2 kmh WNW 4.0 mph6.4 kmh 29.74 in1007.1 mb 0.00 in0.0 mm 0.00 in0.0 mm 0.00 in0.0 mm
02:15 AM 80.0°F26.7°C 63.9°F17.7°C 58% 2.0 mph WNW3.2 kmh WNW 3.0 mph4.8 kmh 29.74 in1007.1 mb 0.00 in0.0 mm 0.00 in0.0 mm 0.00 in0.0 mm
02:20 AM 79.9°F26.6°C 64.3°F17.9°C 59% 2.0 mph WNW3.2 kmh WNW 3.0 mph4.8 kmh 29.74 in1007.1 mb 0.00 in0.0 mm 0.00 in0.0 mm 0.00 in0.0 mm
02:25 AM 79.9°F26.6°C 63.8°F17.7°C 58% 1.0 mph WNW1.6 kmh WNW 3.0 mph4.8 kmh 29.74 in1007.1 mb 0.00 in0.0 mm 0.00 in0.0 mm 0.00 in0.0 mm
02:30 AM 79.8°F26.6°C 63.7°F17.6°C 58% Calm Calm 2.0 mph3.2 kmh 29.75 in1007.5 mb 0.00 in0.0 mm 0.00 in0.0 mm 0.00 in0.0 mm
02:35 AM 79.7°F26.5°C 64.1°F17.8°C 59% Calm Calm -- 29.75 in1007.5 mb 0.00 in0.0 mm 0.00 in0.0 mm 0.00 in0.0 mm
02:40 AM 79.6°F26.4°C 64.0°F17.8°C 59% Calm Calm 2.0 mph3.2 kmh 29.75 in1007.5 mb 0.00 in0.0 mm 0.00 in0.0 mm 0.00 in0.0 mm
02:45 AM 79.5°F26.4°C 63.4°F17.4°C 58% 1.0 mph WNW1.6 kmh WNW 2.0 mph3.2 kmh 29.76 in1007.8 mb 0.00 in0.0 mm 0.00 in0.0 mm 0.00 in0.0 mm
02:50 AM 79.4°F26.3°C 63.3°F17.4°C 58% 1.0 mph WNW1.6 kmh WNW 2.0 mph3.2 kmh 29.76 in1007.8 mb 0.00 in0.0 mm 0.00 in0.0 mm 0.00 in0.0 mm
02:55 AM 79.4°F26.3°C 63.3°F17.4°C 58% Calm Calm 2.0 mph3.2 kmh 29.75 in1007.5 mb 0.00 in0.0 mm 0.00 in0.0 mm 0.00 in0.0 mm
03:00 AM 79.3°F26.3°C 63.7°F17.6°C 59% Calm Calm -- 29.75 in1007.5 mb 0.00 in0.0 mm 0.00 in0.0 mm 0.00 in0.0 mm
03:05 AM 79.3°F26.3°C 63.7°F17.6°C 59% Calm Calm -- 29.75 in1007.5 mb 0.00 in0.0 mm 0.00 in0.0 mm 0.00 in0.0 mm
03:10 AM 79.2°F26.2°C 64.1°F17.8°C 60% Calm Calm 2.0 mph3.2 kmh 29.75 in1007.5 mb 0.00 in0.0 mm 0.00 in0.0 mm 0.00 in0.0 mm
03:15 AM 79.1°F26.2°C 64.0°F17.8°C 60% 1.0 mph WNW1.6 kmh WNW 3.0 mph4.8 kmh 29.76 in1007.8 mb 0.00 in0.0 mm 0.00 in0.0 mm 0.00 in0.0 mm
03:20 AM 79.0°F26.1°C 63.9°F17.7°C 60% 2.0 mph WNW3.2 kmh WNW 3.0 mph4.8 kmh 29.76 in1007.8 mb 0.00 in0.0 mm 0.00 in0.0 mm 0.00 in0.0 mm
03:25 AM 79.0°F26.1°C 63.9°F17.7°C 60% 1.0 mph WNW1.6 kmh WNW 3.0 mph4.8 kmh 29.76 in1007.8 mb 0.00 in0.0 mm 0.00 in0.0 mm 0.00 in0.0 mm
03:30 AM 79.0°F26.1°C 63.9°F17.7°C 60% 1.0 mph WNW1.6 kmh WNW 2.0 mph3.2 kmh 29.77 in1008.1 mb 0.00 in0.0 mm 0.00 in0.0 mm 0.00 in0.0 mm
03:35 AM 78.9°F26.1°C 63.4°F17.4°C 59% 1.0 mph WNW1.6 kmh WNW 2.0 mph3.2 kmh 29.76 in1007.8 mb 0.00 in0.0 mm 0.00 in0.0 mm 0.00 in0.0 mm
03:40 AM 78.8°F26.0°C 63.3°F17.4°C 59% 1.0 mph WSW1.6 kmh WSW 5.0 mph8.0 kmh 29.76 in1007.8 mb 0.00 in0.0 mm 0.00 in0.0 mm 0.00 in0.0 mm
03:45 AM 78.8°F26.0°C 63.3°F17.4°C 59% 2.0 mph S3.2 kmh S 5.0 mph8.0 kmh 29.76 in1007.8 mb 0.00 in0.0 mm 0.00 in0.0 mm 0.00 in0.0 mm
03:50 AM 78.7°F25.9°C 63.6°F17.6°C 60% 1.0 mph SSE1.6 kmh SSE 4.0 mph6.4 kmh 29.76 in1007.8 mb 0.00 in0.0 mm 0.00 in0.0 mm 0.00 in0.0 mm
03:55 AM 78.8°F26.0°C 63.7°F17.6°C 60% Calm Calm 2.0 mph3.2 kmh 29.75 in1007.5 mb 0.00 in0.0 mm 0.00 in0.0 mm 0.00 in0.0 mm
04:00 AM 78.8°F26.0°C 63.7°F17.6°C 60% Calm Calm 1.0 mph1.6 kmh 29.75 in1007.5 mb 0.00 in0.0 mm 0.00 in0.0 mm 0.00 in0.0 mm
04:05 AM 78.7°F25.9°C 64.1°F17.8°C 61% Calm Calm -- 29.75 in1007.5 mb 0.00 in0.0 mm 0.00 in0.0 mm 0.00 in0.0 mm
04:10 AM 78.6°F25.9°C 63.6°F17.6°C 60% Calm Calm -- 29.75 in1007.5 mb 0.00 in0.0 mm 0.00 in0.0 mm 0.00 in0.0 mm
04:15 AM 78.4°F25.8°C 64.3°F17.9°C 62% Calm Calm 2.0 mph3.2 kmh 29.75 in1007.5 mb 0.00 in0.0 mm 0.00 in0.0 mm 0.00 in0.0 mm
04:20 AM 78.2°F25.7°C 64.1°F17.8°C 62% 1.0 mph SSE1.6 kmh SSE 2.0 mph3.2 kmh 29.75 in1007.5 mb 0.00 in0.0 mm 0.00 in0.0 mm 0.00 in0.0 mm
04:25 AM 78.1°F25.6°C 64.0°F17.8°C 62% 1.0 mph SSE1.6 kmh SSE 2.0 mph3.2 kmh 29.76 in1007.8 mb 0.00 in0.0 mm 0.00 in0.0 mm 0.00 in0.0 mm
04:30 AM 78.0°F25.6°C 64.4°F18.0°C 63% 2.0 mph E3.2 kmh E 5.0 mph8.0 kmh 29.75 in1007.5 mb 0.00 in0.0 mm 0.00 in0.0 mm 0.00 in0.0 mm
04:35 AM 78.0°F25.6°C 64.4°F18.0°C 63% 2.0 mph NE3.2 kmh NE 5.0 mph8.0 kmh 29.75 in1007.5 mb 0.00 in0.0 mm 0.00 in0.0 mm 0.00 in0.0 mm
04:40 AM 78.0°F25.6°C 64.4°F18.0°C 63% 1.0 mph NE1.6 kmh NE 4.0 mph6.4 kmh 29.75 in1007.5 mb 0.00 in0.0 mm 0.00 in0.0 mm 0.00 in0.0 mm
04:45 AM 77.9°F25.5°C 63.8°F17.7°C 62% 1.0 mph NE1.6 kmh NE 3.0 mph4.8 kmh 29.75 in1007.5 mb 0.00 in0.0 mm 0.00 in0.0 mm 0.00 in0.0 mm
04:50 AM 77.8°F25.4°C 63.7°F17.6°C 62% Calm Calm 2.0 mph3.2 kmh 29.75 in1007.5 mb 0.00 in0.0 mm 0.00 in0.0 mm 0.00 in0.0 mm
04:55 AM 77.6°F25.3°C 64.5°F18.1°C 64% 1.0 mph NE1.6 kmh NE 3.0 mph4.8 kmh 29.76 in1007.8 mb 0.00 in0.0 mm 0.00 in0.0 mm 0.00 in0.0 mm
05:00 AM 77.5°F25.3°C 63.9°F17.7°C 63% 2.0 mph NE3.2 kmh NE 3.0 mph4.8 kmh 29.76 in1007.8 mb 0.00 in0.0 mm 0.00 in0.0 mm 0.00 in0.0 mm
05:05 AM 77.4°F25.2°C 63.4°F17.4°C 62% 1.0 mph NE1.6 kmh NE 3.0 mph4.8 kmh 29.76 in1007.8 mb 0.00 in0.0 mm 0.00 in0.0 mm 0.00 in0.0 mm
05:10 AM 77.3°F25.2°C 63.7°F17.6°C 63% 1.0 mph NE1.6 kmh NE 3.0 mph4.8 kmh 29.76 in1007.8 mb 0.00 in0.0 mm 0.00 in0.0 mm 0.00 in0.0 mm
05:15 AM 77.2°F25.1°C 63.6°F17.6°C 63% 1.0 mph NE1.6 kmh NE 3.0 mph4.8 kmh 29.76 in1007.8 mb 0.00 in0.0 mm 0.00 in0.0 mm 0.00 in0.0 mm
05:20 AM 77.1°F25.1°C 63.5°F17.5°C 63% Calm Calm 2.0 mph3.2 kmh 29.76 in1007.8 mb 0.00 in0.0 mm 0.00 in0.0 mm 0.00 in0.0 mm
05:25 AM 77.0°F25.0°C 63.9°F17.7°C 64% Calm Calm 1.0 mph1.6 kmh 29.76 in1007.8 mb 0.00 in0.0 mm 0.00 in0.0 mm 0.00 in0.0 mm
05:30 AM 76.8°F24.9°C 63.2°F17.3°C 63% Calm Calm 1.0 mph1.6 kmh 29.76 in1007.8 mb 0.00 in0.0 mm 0.00 in0.0 mm 0.00 in0.0 mm
05:35 AM 76.7°F24.8°C 63.6°F17.6°C 64% 1.0 mph NE1.6 kmh NE 2.0 mph3.2 kmh 29.76 in1007.8 mb 0.00 in0.0 mm 0.00 in0.0 mm 0.00 in0.0 mm
05:40 AM 76.6°F24.8°C 63.5°F17.5°C 64% 1.0 mph NE1.6 kmh NE 2.0 mph3.2 kmh 29.76 in1007.8 mb 0.00 in0.0 mm 0.00 in0.0 mm 0.00 in0.0 mm
05:45 AM 76.5°F24.7°C 62.5°F16.9°C 62% 1.0 mph NE1.6 kmh NE 2.0 mph3.2 kmh 29.76 in1007.8 mb 0.00 in0.0 mm 0.00 in0.0 mm 0.00 in0.0 mm
05:50 AM 76.7°F24.8°C 62.7°F17.1°C 62% 1.0 mph NE1.6 kmh NE 3.0 mph4.8 kmh 29.76 in1007.8 mb 0.00 in0.0 mm 0.00 in0.0 mm 0.00 in0.0 mm
05:55 AM 76.8°F24.9°C 61.9°F16.6°C 60% 2.0 mph NE3.2 kmh NE 3.0 mph4.8 kmh 29.76 in1007.8 mb 0.00 in0.0 mm 0.00 in0.0 mm 0.00 in0.0 mm
06:00 AM 76.9°F24.9°C 62.4°F16.9°C 61% 1.0 mph NE1.6 kmh NE 3.0 mph4.8 kmh 29.76 in1007.8 mb 0.00 in0.0 mm 0.00 in0.0 mm 0.00 in0.0 mm
06:05 AM 76.9°F24.9°C 62.9°F17.2°C 62% Calm Calm 1.0 mph1.6 kmh 29.76 in1007.8 mb 0.00 in0.0 mm 0.00 in0.0 mm 0.00 in0.0 mm
06:10 AM 76.9°F24.9°C 62.4°F16.9°C 61% 1.0 mph E1.6 kmh E 4.0 mph6.4 kmh 29.77 in1008.1 mb 0.00 in0.0 mm 0.00 in0.0 mm 0.00 in0.0 mm
06:15 AM 76.9°F24.9°C 62.4°F16.9°C 61% 2.0 mph S3.2 kmh S 4.0 mph6.4 kmh 29.77 in1008.1 mb 0.00 in0.0 mm 0.00 in0.0 mm 0.00 in0.0 mm
06:20 AM 77.0°F25.0°C 62.0°F16.7°C 60% 1.0 mph SSW1.6 kmh SSW 4.0 mph6.4 kmh 29.77 in1008.1 mb 0.00 in0.0 mm 0.00 in0.0 mm 0.00 in0.0 mm
06:25 AM 77.3°F25.2°C 63.3°F17.4°C 62% 2.0 mph SSW3.2 kmh SSW 4.0 mph6.4 kmh 29.77 in1008.1 mb 0.00 in0.0 mm 0.00 in0.0 mm 0.00 in0.0 mm
06:30 AM 77.6°F25.3°C 63.5°F17.5°C 62% 2.0 mph SSW3.2 kmh SSW 4.0 mph6.4 kmh 29.77 in1008.1 mb 0.00 in0.0 mm 0.00 in0.0 mm 0.00 in0.0 mm
06:35 AM 77.8°F25.4°C 63.7°F17.6°C 62% 2.0 mph SSW3.2 kmh SSW 4.0 mph6.4 kmh 29.77 in1008.1 mb 0.00 in0.0 mm 0.00 in0.0 mm 0.00 in0.0 mm
06:40 AM 78.1°F25.6°C 63.6°F17.6°C 61% 2.0 mph SSW3.2 kmh SSW 4.0 mph6.4 kmh 29.77 in1008.1 mb 0.00 in0.0 mm 0.00 in0.0 mm 0.00 in0.0 mm
06:45 AM 78.4°F25.8°C 63.4°F17.4°C 60% 1.0 mph SSW1.6 kmh SSW 3.0 mph4.8 kmh 29.77 in1008.1 mb 0.00 in0.0 mm 0.00 in0.0 mm 0.00 in0.0 mm
06:50 AM 78.8°F26.0°C 63.7°F17.6°C 60% 1.0 mph SSW1.6 kmh SSW 3.0 mph4.8 kmh 29.78 in1008.5 mb 0.00 in0.0 mm 0.00 in0.0 mm 0.00 in0.0 mm
06:55 AM 79.2°F26.2°C 63.1°F17.3°C 58% 1.0 mph SSW1.6 kmh SSW 2.0 mph3.2 kmh 29.78 in1008.5 mb 0.00 in0.0 mm 0.00 in0.0 mm 0.00 in0.0 mm
07:00 AM 79.6°F26.4°C 62.5°F16.9°C 56% 1.0 mph SSW1.6 kmh SSW 3.0 mph4.8 kmh 29.78 in1008.5 mb 0.00 in0.0 mm 0.00 in0.0 mm 0.00 in0.0 mm
07:05 AM 80.1°F26.7°C 63.0°F17.2°C 56% 1.0 mph SSW1.6 kmh SSW 3.0 mph4.8 kmh 29.78 in1008.5 mb 0.00 in0.0 mm 0.00 in0.0 mm 0.00 in0.0 mm
07:10 AM 80.6°F27.0°C 62.4°F16.9°C 54% 1.0 mph SSW1.6 kmh SSW 3.0 mph4.8 kmh 29.78 in1008.5 mb 0.00 in0.0 mm 0.00 in0.0 mm 0.00 in0.0 mm
07:15 AM 81.2°F27.3°C 61.4°F16.3°C 51% 1.0 mph SSW1.6 kmh SSW 3.0 mph4.8 kmh 29.78 in1008.5 mb 0.00 in0.0 mm 0.00 in0.0 mm 0.00 in0.0 mm
07:20 AM 81.9°F27.7°C 61.4°F16.3°C 50% 1.0 mph SSW1.6 kmh SSW 2.0 mph3.2 kmh 29.78 in1008.5 mb 0.00 in0.0 mm 0.00 in0.0 mm 0.00 in0.0 mm
07:25 AM 82.5°F28.1°C 61.4°F16.3°C 49% 1.0 mph SSW1.6 kmh SSW 2.0 mph3.2 kmh 29.78 in1008.5 mb 0.00 in0.0 mm 0.00 in0.0 mm 0.00 in0.0 mm
07:30 AM 83.2°F28.4°C 61.5°F16.4°C 48% 1.0 mph SSW1.6 kmh SSW 2.0 mph3.2 kmh 29.78 in1008.5 mb 0.00 in0.0 mm 0.00 in0.0 mm 0.00 in0.0 mm
07:35 AM 83.9°F28.8°C 60.9°F16.1°C 46% 1.0 mph SSW1.6 kmh SSW 4.0 mph6.4 kmh 29.78 in1008.5 mb 0.00 in0.0 mm 0.00 in0.0 mm 0.00 in0.0 mm
07:40 AM 84.7°F29.3°C 60.4°F15.8°C 44% 2.0 mph SSW3.2 kmh SSW 4.0 mph6.4 kmh 29.78 in1008.5 mb 0.00 in0.0 mm 0.00 in0.0 mm 0.00 in0.0 mm
07:45 AM 85.2°F29.6°C 60.2°F15.7°C 43% 2.0 mph SSW3.2 kmh SSW 4.0 mph6.4 kmh 29.78 in1008.5 mb 0.00 in0.0 mm 0.00 in0.0 mm 0.00 in0.0 mm
07:50 AM 85.6°F29.8°C 59.2°F15.1°C 41% 2.0 mph SSW3.2 kmh SSW 3.0 mph4.8 kmh 29.79 in1008.8 mb 0.00 in0.0 mm 0.00 in0.0 mm 0.00 in0.0 mm
07:55 AM 86.1°F30.1°C 59.0°F15.0°C 40% 2.0 mph SSW3.2 kmh SSW 3.0 mph4.8 kmh 29.79 in1008.8 mb 0.00 in0.0 mm 0.00 in0.0 mm 0.00 in0.0 mm
08:00 AM 86.8°F30.4°C 59.6°F15.3°C 40% 1.0 mph SSW1.6 kmh SSW 3.0 mph4.8 kmh 29.79 in1008.8 mb 0.00 in0.0 mm 0.00 in0.0 mm 0.00 in0.0 mm
08:05 AM 87.4°F30.8°C 58.7°F14.8°C 38% 1.0 mph SSW1.6 kmh SSW 3.0 mph4.8 kmh 29.79 in1008.8 mb 0.00 in0.0 mm 0.00 in0.0 mm 0.00 in0.0 mm
08:10 AM 88.4°F31.3°C 58.1°F14.5°C 36% 1.0 mph SSW1.6 kmh SSW 3.0 mph4.8 kmh 29.79 in1008.8 mb 0.00 in0.0 mm 0.00 in0.0 mm 0.00 in0.0 mm
08:15 AM 89.5°F31.9°C 58.2°F14.6°C 35% 1.0 mph SSW1.6 kmh SSW 3.0 mph4.8 kmh 29.79 in1008.8 mb 0.00 in0.0 mm 0.00 in0.0 mm 0.00 in0.0 mm
08:20 AM 90.6°F32.6°C 57.6°F14.2°C 33% 1.0 mph SSW1.6 kmh SSW 3.0 mph4.8 kmh 29.79 in1008.8 mb 0.00 in0.0 mm 0.00 in0.0 mm 0.00 in0.0 mm
08:25 AM 91.8°F33.2°C 57.7°F14.3°C 32% 1.0 mph SSW1.6 kmh SSW 3.0 mph4.8 kmh 29.79 in1008.8 mb 0.00 in0.0 mm 0.00 in0.0 mm 0.00 in0.0 mm
08:30 AM 92.9°F33.8°C 57.8°F14.3°C 31% 1.0 mph S1.6 kmh S 4.0 mph6.4 kmh 29.79 in1008.8 mb 0.00 in0.0 mm 0.00 in0.0 mm 0.00 in0.0 mm
08:35 AM 93.9°F34.4°C 56.8°F13.8°C 29% 1.0 mph ESE1.6 kmh ESE 4.0 mph6.4 kmh 29.79 in1008.8 mb 0.00 in0.0 mm 0.00 in0.0 mm 0.00 in0.0 mm
08:40 AM 94.6°F34.8°C 56.4°F13.6°C 28% 1.0 mph E1.6 kmh E 3.0 mph4.8 kmh 29.79 in1008.8 mb 0.00 in0.0 mm 0.00 in0.0 mm 0.00 in0.0 mm
08:45 AM 95.3°F35.2°C 56.0°F13.3°C 27% 2.0 mph SE3.2 kmh SE 6.0 mph9.7 kmh 29.79 in1008.8 mb 0.00 in0.0 mm 0.00 in0.0 mm 0.00 in0.0 mm
08:50 AM 95.5°F35.3°C 55.2°F12.9°C 26% 2.0 mph S3.2 kmh S 6.0 mph9.7 kmh 29.79 in1008.8 mb 0.00 in0.0 mm 0.00 in0.0 mm 0.00 in0.0 mm
08:55 AM 95.4°F35.2°C 55.1°F12.8°C 26% 1.0 mph SSW1.6 kmh SSW 5.0 mph8.0 kmh 29.79 in1008.8 mb 0.00 in0.0 mm 0.00 in0.0 mm 0.00 in0.0 mm
09:00 AM 95.1°F35.1°C 55.9°F13.3°C 27% 2.0 mph S3.2 kmh S 5.0 mph8.0 kmh 29.79 in1008.8 mb 0.00 in0.0 mm 0.00 in0.0 mm 0.00 in0.0 mm
09:05 AM 94.8°F34.9°C 55.6°F13.1°C 27% 2.0 mph SSE3.2 kmh SSE 5.0 mph8.0 kmh 29.79 in1008.8 mb 0.00 in0.0 mm 0.00 in0.0 mm 0.00 in0.0 mm
09:10 AM 94.5°F34.7°C 55.4°F13.0°C 27% 2.0 mph SSE3.2 kmh SSE 5.0 mph8.0 kmh 29.79 in1008.8 mb 0.00 in0.0 mm 0.00 in0.0 mm 0.00 in0.0 mm
09:15 AM 94.4°F34.7°C 56.3°F13.5°C 28% 2.0 mph S3.2 kmh S 5.0 mph8.0 kmh 29.79 in1008.8 mb 0.00 in0.0 mm 0.00 in0.0 mm 0.00 in0.0 mm
09:20 AM 94.6°F34.8°C 56.4°F13.6°C 28% 2.0 mph S3.2 kmh S 4.0 mph6.4 kmh 29.79 in1008.8 mb 0.00 in0.0 mm 0.00 in0.0 mm 0.00 in0.0 mm
09:25 AM 94.9°F34.9°C 56.7°F13.7°C 28% 2.0 mph S3.2 kmh S 5.0 mph8.0 kmh 29.79 in1008.8 mb 0.00 in0.0 mm 0.00 in0.0 mm 0.00 in0.0 mm
09:30 AM 95.5°F35.3°C 57.2°F14.0°C 28% 2.0 mph SSW3.2 kmh SSW 5.0 mph8.0 kmh 29.79 in1008.8 mb 0.00 in0.0 mm 0.00 in0.0 mm 0.00 in0.0 mm
09:35 AM 95.8°F35.4°C 56.5°F13.6°C 27% 2.0 mph SW3.2 kmh SW 6.0 mph9.7 kmh 29.79 in1008.8 mb 0.00 in0.0 mm 0.00 in0.0 mm 0.00 in0.0 mm
09:40 AM 96.2°F35.7°C 54.7°F12.6°C 25% 2.0 mph SSW3.2 kmh SSW 6.0 mph9.7 kmh 29.79 in1008.8 mb 0.00 in0.0 mm 0.00 in0.0 mm 0.00 in0.0 mm
09:45 AM 96.1°F35.6°C 54.6°F12.6°C 25% 1.0 mph S1.6 kmh S 3.0 mph4.8 kmh 29.79 in1008.8 mb 0.00 in0.0 mm 0.00 in0.0 mm 0.00 in0.0 mm
09:50 AM 96.4°F35.8°C 54.8°F12.7°C 25% 2.0 mph S3.2 kmh S 5.0 mph8.0 kmh 29.79 in1008.8 mb 0.00 in0.0 mm 0.00 in0.0 mm 0.00 in0.0 mm
09:55 AM 97.0°F36.1°C 57.5°F14.2°C 27% 2.0 mph S3.2 kmh S 5.0 mph8.0 kmh 29.79 in1008.8 mb 0.00 in0.0 mm 0.00 in0.0 mm 0.00 in0.0 mm
10:00 AM 97.4°F36.3°C 57.8°F14.3°C 27% 1.0 mph SSW1.6 kmh SSW 4.0 mph6.4 kmh 29.79 in1008.8 mb 0.00 in0.0 mm 0.00 in0.0 mm 0.00 in0.0 mm
10:05 AM 97.7°F36.5°C 55.9°F13.3°C 25% 2.0 mph SW3.2 kmh SW 4.0 mph6.4 kmh 29.79 in1008.8 mb 0.00 in0.0 mm 0.00 in0.0 mm 0.00 in0.0 mm
10:10 AM 97.7°F36.5°C 55.9°F13.3°C 25% 2.0 mph SW3.2 kmh SW 5.0 mph8.0 kmh 29.79 in1008.8 mb 0.00 in0.0 mm 0.00 in0.0 mm 0.00 in0.0 mm
10:15 AM 98.4°F36.9°C 56.5°F13.6°C 25% 2.0 mph SW3.2 kmh SW 5.0 mph8.0 kmh 29.79 in1008.8 mb 0.00 in0.0 mm 0.00 in0.0 mm 0.00 in0.0 mm
10:20 AM 98.5°F36.9°C 56.6°F13.7°C 25% 2.0 mph W3.2 kmh W 6.0 mph9.7 kmh 29.79 in1008.8 mb 0.00 in0.0 mm 0.00 in0.0 mm 0.00 in0.0 mm
10:25 AM 98.3°F36.8°C 56.4°F13.6°C 25% 2.0 mph WNW3.2 kmh WNW 6.0 mph9.7 kmh 29.79 in1008.8 mb 0.00 in0.0 mm 0.00 in0.0 mm 0.00 in0.0 mm
10:30 AM 99.0°F37.2°C 57.0°F13.9°C 25% 2.0 mph WSW3.2 kmh WSW 6.0 mph9.7 kmh 29.79 in1008.8 mb 0.00 in0.0 mm 0.00 in0.0 mm 0.00 in0.0 mm
10:35 AM 98.8°F37.1°C 56.9°F13.8°C 25% 3.0 mph SW4.8 kmh SW 9.0 mph14.5 kmh 29.79 in1008.8 mb 0.00 in0.0 mm 0.00 in0.0 mm 0.00 in0.0 mm
10:40 AM 98.6°F37.0°C 55.6°F13.1°C 24% 4.0 mph SSW6.4 kmh SSW 10.0 mph16.1 kmh 29.79 in1008.8 mb 0.00 in0.0 mm 0.00 in0.0 mm 0.00 in0.0 mm
10:45 AM 99.1°F37.3°C 57.1°F13.9°C 25% 3.0 mph SSW4.8 kmh SSW 10.0 mph16.1 kmh 29.79 in1008.8 mb 0.00 in0.0 mm 0.00 in0.0 mm 0.00 in0.0 mm
10:50 AM 99.5°F37.5°C 56.3°F13.5°C 24% 2.0 mph SSW3.2 kmh SSW 6.0 mph9.7 kmh 29.78 in1008.5 mb 0.00 in0.0 mm 0.00 in0.0 mm 0.00 in0.0 mm
10:55 AM 99.6°F37.6°C 55.2°F12.9°C 23% 3.0 mph SSW4.8 kmh SSW 6.0 mph9.7 kmh 29.78 in1008.5 mb 0.00 in0.0 mm 0.00 in0.0 mm 0.00 in0.0 mm
11:00 AM 99.7°F37.6°C 56.5°F13.6°C 24% 2.0 mph WSW3.2 kmh WSW 6.0 mph9.7 kmh 29.78 in1008.5 mb 0.00 in0.0 mm 0.00 in0.0 mm 0.00 in0.0 mm
11:05 AM 99.4°F37.4°C 56.2°F13.4°C 24% 3.0 mph WNW4.8 kmh WNW 9.0 mph14.5 kmh 29.78 in1008.5 mb 0.00 in0.0 mm 0.00 in0.0 mm 0.00 in0.0 mm
11:10 AM 98.9°F37.2°C 55.8°F13.2°C 24% 4.0 mph NW6.4 kmh NW 9.0 mph14.5 kmh 29.78 in1008.5 mb 0.00 in0.0 mm 0.00 in0.0 mm 0.00 in0.0 mm
11:15 AM 98.6°F37.0°C 56.7°F13.7°C 25% 3.0 mph N4.8 kmh N 5.0 mph8.0 kmh 29.78 in1008.5 mb 0.00 in0.0 mm 0.00 in0.0 mm 0.00 in0.0 mm
11:20 AM 98.7°F37.1°C 56.8°F13.8°C 25% 3.0 mph WNW4.8 kmh WNW 9.0 mph14.5 kmh 29.77 in1008.1 mb 0.00 in0.0 mm 0.00 in0.0 mm 0.00 in0.0 mm
11:25 AM 98.3°F36.8°C 56.4°F13.6°C 25% 4.0 mph NW6.4 kmh NW 10.0 mph16.1 kmh 29.77 in1008.1 mb 0.00 in0.0 mm 0.00 in0.0 mm 0.00 in0.0 mm
11:30 AM 98.7°F37.1°C 56.8°F13.8°C 25% 5.0 mph N8.0 kmh N 5.0 mph8.0 kmh 29.77 in1008.1 mb 0.00 in0.0 mm 0.00 in0.0 mm 0.00 in0.0 mm
11:35 AM 99.2°F37.3°C 56.1°F13.4°C 24% 4.0 mph WNW6.4 kmh WNW 8.0 mph12.9 kmh 29.77 in1008.1 mb 0.00 in0.0 mm 0.00 in0.0 mm 0.00 in0.0 mm
11:40 AM 99.4°F37.4°C 56.2°F13.4°C 24% 3.0 mph WNW4.8 kmh WNW 8.0 mph12.9 kmh 29.76 in1007.8 mb 0.00 in0.0 mm 0.00 in0.0 mm 0.00 in0.0 mm
11:45 AM 99.7°F37.6°C 56.5°F13.6°C 24% 3.0 mph NW4.8 kmh NW 8.0 mph12.9 kmh 29.76 in1007.8 mb 0.00 in0.0 mm 0.00 in0.0 mm 0.00 in0.0 mm
11:50 AM 100.1°F37.8°C 56.8°F13.8°C 24% 3.0 mph NNW4.8 kmh NNW 7.0 mph11.3 kmh 29.76 in1007.8 mb 0.00 in0.0 mm 0.00 in0.0 mm 0.00 in0.0 mm
11:55 AM 100.4°F38.0°C 55.9°F13.3°C 23% 3.0 mph WNW4.8 kmh WNW 6.0 mph9.7 kmh 29.75 in1007.5 mb 0.00 in0.0 mm 0.00 in0.0 mm 0.00 in0.0 mm
12:00 PM 100.6°F38.1°C 56.1°F13.4°C 23% 4.0 mph W6.4 kmh W 9.0 mph14.5 kmh 29.75 in1007.5 mb 0.00 in0.0 mm 0.00 in0.0 mm 0.00 in0.0 mm
12:05 PM 100.6°F38.1°C 54.8°F12.7°C 22% 4.0 mph WSW6.4 kmh WSW 9.0 mph14.5 kmh 29.75 in1007.5 mb 0.00 in0.0 mm 0.00 in0.0 mm 0.00 in0.0 mm
12:10 PM 101.1°F38.4°C 55.2°F12.9°C 22% 3.0 mph SW4.8 kmh SW 7.0 mph11.3 kmh 29.75 in1007.5 mb 0.00 in0.0 mm 0.00 in0.0 mm 0.00 in0.0 mm
12:15 PM 101.4°F38.6°C 55.5°F13.1°C 22% 3.0 mph WSW4.8 kmh WSW 9.0 mph14.5 kmh 29.75 in1007.5 mb 0.00 in0.0 mm 0.00 in0.0 mm 0.00 in0.0 mm
12:20 PM 101.4°F38.6°C 54.2°F12.3°C 21% 3.0 mph WNW4.8 kmh WNW 9.0 mph14.5 kmh 29.74 in1007.1 mb 0.00 in0.0 mm 0.00 in0.0 mm 0.00 in0.0 mm
12:25 PM 101.5°F38.6°C 54.3°F12.4°C 21% 4.0 mph W6.4 kmh W 8.0 mph12.9 kmh 29.74 in1007.1 mb 0.00 in0.0 mm 0.00 in0.0 mm 0.00 in0.0 mm
12:30 PM 101.6°F38.7°C 54.4°F12.4°C 21% 4.0 mph W6.4 kmh W 9.0 mph14.5 kmh 29.74 in1007.1 mb 0.00 in0.0 mm 0.00 in0.0 mm 0.00 in0.0 mm
12:35 PM 101.2°F38.4°C 54.0°F12.2°C 21% 4.0 mph WSW6.4 kmh WSW 10.0 mph16.1 kmh 29.74 in1007.1 mb 0.00 in0.0 mm 0.00 in0.0 mm 0.00 in0.0 mm
12:40 PM 101.3°F38.5°C 52.8°F11.6°C 20% 5.0 mph WSW8.0 kmh WSW 10.0 mph16.1 kmh 29.74 in1007.1 mb 0.00 in0.0 mm 0.00 in0.0 mm 0.00 in0.0 mm
12:45 PM 101.4°F38.6°C 52.9°F11.6°C 20% 5.0 mph WSW8.0 kmh WSW 9.0 mph14.5 kmh 29.74 in1007.1 mb 0.00 in0.0 mm 0.00 in0.0 mm 0.00 in0.0 mm
12:50 PM 101.5°F38.6°C 53.0°F11.7°C 20% 4.0 mph WSW6.4 kmh WSW 8.0 mph12.9 kmh 29.74 in1007.1 mb 0.00 in0.0 mm 0.00 in0.0 mm 0.00 in0.0 mm
12:55 PM 100.9°F38.3°C 52.5°F11.4°C 20% 4.0 mph WSW6.4 kmh WSW 10.0 mph16.1 kmh 29.74 in1007.1 mb 0.00 in0.0 mm 0.00 in0.0 mm 0.00 in0.0 mm
01:00 PM 100.6°F38.1°C 52.2°F11.2°C 20% 5.0 mph WSW8.0 kmh WSW 11.0 mph17.7 kmh 29.74 in1007.1 mb 0.00 in0.0 mm 0.00 in0.0 mm 0.00 in0.0 mm
01:05 PM 100.8°F38.2°C 52.4°F11.3°C 20% 4.0 mph SW6.4 kmh SW 11.0 mph17.7 kmh 29.74 in1007.1 mb 0.00 in0.0 mm 0.00 in0.0 mm 0.00 in0.0 mm
01:10 PM 100.7°F38.2°C 52.3°F11.3°C 20% 3.0 mph SW4.8 kmh SW 7.0 mph11.3 kmh 29.73 in1006.8 mb 0.00 in0.0 mm 0.00 in0.0 mm 0.00 in0.0 mm
01:15 PM 100.8°F38.2°C 52.4°F11.3°C 20% 4.0 mph SW6.4 kmh SW 8.0 mph12.9 kmh 29.73 in1006.8 mb 0.00 in0.0 mm 0.00 in0.0 mm 0.00 in0.0 mm
01:20 PM 100.9°F38.3°C 52.5°F11.4°C 20% 5.0 mph SW8.0 kmh SW 10.0 mph16.1 kmh 29.73 in1006.8 mb 0.00 in0.0 mm 0.00 in0.0 mm 0.00 in0.0 mm
01:25 PM 100.9°F38.3°C 52.5°F11.4°C 20% 5.0 mph SW8.0 kmh SW 10.0 mph16.1 kmh 29.73 in1006.8 mb 0.00 in0.0 mm 0.00 in0.0 mm 0.00 in0.0 mm
01:30 PM 101.4°F38.6°C 52.9°F11.6°C 20% 4.0 mph SW6.4 kmh SW 8.0 mph12.9 kmh 29.73 in1006.8 mb 0.00 in0.0 mm 0.00 in0.0 mm 0.00 in0.0 mm
01:35 PM 102.2°F39.0°C 52.1°F11.2°C 19% 4.0 mph SW6.4 kmh SW 9.0 mph14.5 kmh 29.73 in1006.8 mb 0.00 in0.0 mm 0.00 in0.0 mm 0.00 in0.0 mm
01:40 PM 103.3°F39.6°C 51.6°F10.9°C 18% 4.0 mph SSW6.4 kmh SSW 9.0 mph14.5 kmh 29.73 in1006.8 mb 0.00 in0.0 mm 0.00 in0.0 mm 0.00 in0.0 mm
01:45 PM 103.8°F39.9°C 52.0°F11.1°C 18% 5.0 mph SSW8.0 kmh SSW 11.0 mph17.7 kmh 29.73 in1006.8 mb 0.00 in0.0 mm 0.00 in0.0 mm 0.00 in0.0 mm
01:50 PM 103.0°F39.4°C 51.3°F10.7°C 18% 5.0 mph SW8.0 kmh SW 11.0 mph17.7 kmh 29.72 in1006.4 mb 0.00 in0.0 mm 0.00 in0.0 mm 0.00 in0.0 mm
01:55 PM 102.2°F39.0°C 50.7°F10.4°C 18% 4.0 mph SW6.4 kmh SW 10.0 mph16.1 kmh 29.72 in1006.4 mb 0.00 in0.0 mm 0.00 in0.0 mm 0.00 in0.0 mm
02:00 PM 101.9°F38.8°C 51.9°F11.1°C 19% 5.0 mph WSW8.0 kmh WSW 12.0 mph19.3 kmh 29.72 in1006.4 mb 0.00 in0.0 mm 0.00 in0.0 mm 0.00 in0.0 mm
02:05 PM 102.1°F38.9°C 52.1°F11.2°C 19% 4.0 mph WSW6.4 kmh WSW 12.0 mph19.3 kmh 29.72 in1006.4 mb 0.00 in0.0 mm 0.00 in0.0 mm 0.00 in0.0 mm
02:10 PM 102.7°F39.3°C 51.1°F10.6°C 18% 4.0 mph WSW6.4 kmh WSW 12.0 mph19.3 kmh 29.71 in1006.1 mb 0.00 in0.0 mm 0.00 in0.0 mm 0.00 in0.0 mm
02:15 PM 103.0°F39.4°C 51.3°F10.7°C 18% 4.0 mph SW6.4 kmh SW 12.0 mph19.3 kmh 29.71 in1006.1 mb 0.00 in0.0 mm 0.00 in0.0 mm 0.00 in0.0 mm
02:20 PM 103.2°F39.6°C 51.5°F10.8°C 18% 4.0 mph SW6.4 kmh SW 7.0 mph11.3 kmh 29.71 in1006.1 mb 0.00 in0.0 mm 0.00 in0.0 mm 0.00 in0.0 mm
02:25 PM 103.3°F39.6°C 51.6°F10.9°C 18% 4.0 mph WSW6.4 kmh WSW 7.0 mph11.3 kmh 29.71 in1006.1 mb 0.00 in0.0 mm 0.00 in0.0 mm 0.00 in0.0 mm
02:30 PM 103.3°F39.6°C 50.0°F10.0°C 17% 4.0 mph WSW6.4 kmh WSW 13.0 mph20.9 kmh 29.71 in1006.1 mb 0.00 in0.0 mm 0.00 in0.0 mm 0.00 in0.0 mm
02:35 PM 103.1°F39.5°C 51.4°F10.8°C 18% 5.0 mph WSW8.0 kmh WSW 13.0 mph20.9 kmh 29.71 in1006.1 mb 0.00 in0.0 mm 0.00 in0.0 mm 0.00 in0.0 mm
02:40 PM 104.2°F40.1°C 50.7°F10.4°C 17% 4.0 mph SW6.4 kmh SW 9.0 mph14.5 kmh 29.70 in1005.8 mb 0.00 in0.0 mm 0.00 in0.0 mm 0.00 in0.0 mm
02:45 PM 104.2°F40.1°C 50.7°F10.4°C 17% 3.0 mph SW4.8 kmh SW 9.0 mph14.5 kmh 29.70 in1005.8 mb 0.00 in0.0 mm 0.00 in0.0 mm 0.00 in0.0 mm
02:50 PM 104.4°F40.2°C 50.9°F10.5°C 17% 4.0 mph W6.4 kmh W 8.0 mph12.9 kmh 29.69 in1005.4 mb 0.00 in0.0 mm 0.00 in0.0 mm 0.00 in0.0 mm
02:55 PM 104.8°F40.4°C 51.2°F10.7°C 17% 3.0 mph W4.8 kmh W 8.0 mph12.9 kmh 29.69 in1005.4 mb 0.00 in0.0 mm 0.00 in0.0 mm 0.00 in0.0 mm
03:00 PM 105.0°F40.6°C 51.4°F10.8°C 17% 3.0 mph WSW4.8 kmh WSW 11.0 mph17.7 kmh 29.69 in1005.4 mb 0.00 in0.0 mm 0.00 in0.0 mm 0.00 in0.0 mm
03:05 PM 104.6°F40.3°C 51.1°F10.6°C 17% 4.0 mph W6.4 kmh W 11.0 mph17.7 kmh 29.68 in1005.1 mb 0.00 in0.0 mm 0.00 in0.0 mm 0.00 in0.0 mm
03:10 PM 104.4°F40.2°C 50.9°F10.5°C 17% 4.0 mph W6.4 kmh W 9.0 mph14.5 kmh 29.68 in1005.1 mb 0.00 in0.0 mm 0.00 in0.0 mm 0.00 in0.0 mm
03:15 PM 104.4°F40.2°C 50.9°F10.5°C 17% 4.0 mph WSW6.4 kmh WSW 9.0 mph14.5 kmh 29.68 in1005.1 mb 0.00 in0.0 mm 0.00 in0.0 mm 0.00 in0.0 mm
03:20 PM 104.5°F40.3°C 51.0°F10.6°C 17% 4.0 mph W6.4 kmh W 9.0 mph14.5 kmh 29.68 in1005.1 mb 0.00 in0.0 mm 0.00 in0.0 mm 0.00 in0.0 mm
03:25 PM 104.0°F40.0°C 50.6°F10.3°C 17% 4.0 mph W6.4 kmh W 9.0 mph14.5 kmh 29.67 in1004.7 mb 0.00 in0.0 mm 0.00 in0.0 mm 0.00 in0.0 mm
03:30 PM 104.4°F40.2°C 49.3°F9.6°C 16% 4.0 mph WSW6.4 kmh WSW 8.0 mph12.9 kmh 29.67 in1004.7 mb 0.00 in0.0 mm 0.00 in0.0 mm 0.00 in0.0 mm
03:35 PM 104.5°F40.3°C 51.0°F10.6°C 17% 2.0 mph W3.2 kmh W 7.0 mph11.3 kmh 29.67 in1004.7 mb 0.00 in0.0 mm 0.00 in0.0 mm 0.00 in0.0 mm
03:40 PM 105.1°F40.6°C 49.8°F9.9°C 16% 2.0 mph W3.2 kmh W 4.0 mph6.4 kmh 29.67 in1004.7 mb 0.00 in0.0 mm 0.00 in0.0 mm 0.00 in0.0 mm
03:45 PM 105.7°F40.9°C 51.9°F11.1°C 17% 3.0 mph SW4.8 kmh SW 6.0 mph9.7 kmh 29.67 in1004.7 mb 0.00 in0.0 mm 0.00 in0.0 mm 0.00 in0.0 mm
03:50 PM 105.4°F40.8°C 53.3°F11.8°C 18% 3.0 mph WSW4.8 kmh WSW 8.0 mph12.9 kmh 29.67 in1004.7 mb 0.00 in0.0 mm 0.00 in0.0 mm 0.00 in0.0 mm
03:55 PM 105.5°F40.8°C 54.8°F12.7°C 19% 3.0 mph W4.8 kmh W 8.0 mph12.9 kmh 29.66 in1004.4 mb 0.00 in0.0 mm 0.00 in0.0 mm 0.00 in0.0 mm
04:00 PM 105.5°F40.8°C 53.3°F11.8°C 18% 3.0 mph W4.8 kmh W 8.0 mph12.9 kmh 29.66 in1004.4 mb 0.00 in0.0 mm 0.00 in0.0 mm 0.00 in0.0 mm
04:05 PM 105.3°F40.7°C 51.6°F10.9°C 17% 4.0 mph WSW6.4 kmh WSW 10.0 mph16.1 kmh 29.66 in1004.4 mb 0.00 in0.0 mm 0.00 in0.0 mm 0.00 in0.0 mm
04:10 PM 105.1°F40.6°C 53.0°F11.7°C 18% 4.0 mph SW6.4 kmh SW 10.0 mph16.1 kmh 29.66 in1004.4 mb 0.00 in0.0 mm 0.00 in0.0 mm 0.00 in0.0 mm
04:15 PM 104.7°F40.4°C 54.2°F12.3°C 19% 4.0 mph SW6.4 kmh SW 8.0 mph12.9 kmh 29.65 in1004.1 mb 0.00 in0.0 mm 0.00 in0.0 mm 0.00 in0.0 mm
04:20 PM 104.4°F40.2°C 52.4°F11.3°C 18% 3.0 mph WSW4.8 kmh WSW 8.0 mph12.9 kmh 29.65 in1004.1 mb 0.00 in0.0 mm 0.00 in0.0 mm 0.00 in0.0 mm
04:25 PM 104.6°F40.3°C 52.6°F11.4°C 18% 2.0 mph WSW3.2 kmh WSW 5.0 mph8.0 kmh 29.65 in1004.1 mb 0.00 in0.0 mm 0.00 in0.0 mm 0.00 in0.0 mm
04:30 PM 104.7°F40.4°C 52.7°F11.5°C 18% 2.0 mph S3.2 kmh S 6.0 mph9.7 kmh 29.65 in1004.1 mb 0.00 in0.0 mm 0.00 in0.0 mm 0.00 in0.0 mm
04:35 PM 104.6°F40.3°C 52.6°F11.4°C 18% 2.0 mph SSE3.2 kmh SSE 6.0 mph9.7 kmh 29.65 in1004.1 mb 0.00 in0.0 mm 0.00 in0.0 mm 0.00 in0.0 mm
04:40 PM 104.5°F40.3°C 52.5°F11.4°C 18% 3.0 mph SSW4.8 kmh SSW 8.0 mph12.9 kmh 29.65 in1004.1 mb 0.00 in0.0 mm 0.00 in0.0 mm 0.00 in0.0 mm
04:45 PM 104.4°F40.2°C 53.9°F12.2°C 19% 3.0 mph SW4.8 kmh SW 8.0 mph12.9 kmh 29.65 in1004.1 mb 0.00 in0.0 mm 0.00 in0.0 mm 0.00 in0.0 mm
04:50 PM 104.3°F40.2°C 53.8°F12.1°C 19% 3.0 mph SW4.8 kmh SW 8.0 mph12.9 kmh 29.65 in1004.1 mb 0.00 in0.0 mm 0.00 in0.0 mm 0.00 in0.0 mm
04:55 PM 103.7°F39.8°C 53.4°F11.9°C 19% 4.0 mph SW6.4 kmh SW 10.0 mph16.1 kmh 29.65 in1004.1 mb 0.00 in0.0 mm 0.00 in0.0 mm 0.00 in0.0 mm
05:00 PM 103.0°F39.4°C 52.8°F11.6°C 19% 3.0 mph SW4.8 kmh SW 10.0 mph16.1 kmh 29.66 in1004.4 mb 0.00 in0.0 mm 0.00 in0.0 mm 0.00 in0.0 mm
05:05 PM 102.4°F39.1°C 53.7°F12.1°C 20% 2.0 mph WSW3.2 kmh WSW 7.0 mph11.3 kmh 29.66 in1004.4 mb 0.00 in0.0 mm 0.00 in0.0 mm 0.00 in0.0 mm
05:10 PM 101.7°F38.7°C 54.5°F12.5°C 21% 3.0 mph W4.8 kmh W 8.0 mph12.9 kmh 29.66 in1004.4 mb 0.00 in0.0 mm 0.00 in0.0 mm 0.00 in0.0 mm
05:15 PM 101.1°F38.4°C 54.0°F12.2°C 21% 4.0 mph W6.4 kmh W 8.0 mph12.9 kmh 29.66 in1004.4 mb 0.00 in0.0 mm 0.00 in0.0 mm 0.00 in0.0 mm
05:20 PM 100.1°F37.8°C 58.0°F14.4°C 25% 6.0 mph WSW9.7 kmh WSW 17.0 mph27.4 kmh 29.66 in1004.4 mb 0.00 in0.0 mm 0.00 in0.0 mm 0.00 in0.0 mm
05:25 PM 98.5°F36.9°C 57.7°F14.3°C 26% 9.0 mph WSW14.5 kmh WSW 17.0 mph27.4 kmh 29.66 in1004.4 mb 0.00 in0.0 mm 0.00 in0.0 mm 0.00 in0.0 mm
05:30 PM 97.5°F36.4°C 56.9°F13.8°C 26% 8.0 mph WSW12.9 kmh WSW 15.0 mph24.1 kmh 29.66 in1004.4 mb 0.00 in0.0 mm 0.00 in0.0 mm 0.00 in0.0 mm
05:35 PM 96.7°F35.9°C 57.2°F14.0°C 27% 9.0 mph WSW14.5 kmh WSW 17.0 mph27.4 kmh 29.67 in1004.7 mb 0.00 in0.0 mm 0.00 in0.0 mm 0.00 in0.0 mm
05:40 PM 95.9°F35.5°C 57.6°F14.2°C 28% 10.0 mph WSW16.1 kmh WSW 18.0 mph29.0 kmh 29.67 in1004.7 mb 0.00 in0.0 mm 0.00 in0.0 mm 0.00 in0.0 mm
05:45 PM 95.2°F35.1°C 57.9°F14.4°C 29% 11.0 mph WSW17.7 kmh WSW 18.0 mph29.0 kmh 29.68 in1005.1 mb 0.00 in0.0 mm 0.00 in0.0 mm 0.00 in0.0 mm
05:50 PM 94.5°F34.7°C 59.2°F15.1°C 31% 11.0 mph WSW17.7 kmh WSW 20.0 mph32.2 kmh 29.68 in1005.1 mb 0.00 in0.0 mm 0.00 in0.0 mm 0.00 in0.0 mm
05:55 PM 93.6°F34.2°C 59.3°F15.2°C 32% 11.0 mph WSW17.7 kmh WSW 21.0 mph33.8 kmh 29.68 in1005.1 mb 0.00 in0.0 mm 0.00 in0.0 mm 0.00 in0.0 mm
06:00 PM 93.2°F34.0°C 59.0°F15.0°C 32% 10.0 mph WSW16.1 kmh WSW 21.0 mph33.8 kmh 29.68 in1005.1 mb 0.00 in0.0 mm 0.00 in0.0 mm 0.00 in0.0 mm
06:05 PM 93.0°F33.9°C 59.6°F15.3°C 33% 8.0 mph WSW12.9 kmh WSW 19.0 mph30.6 kmh 29.68 in1005.1 mb 0.00 in0.0 mm 0.00 in0.0 mm 0.00 in0.0 mm
06:10 PM 92.9°F33.8°C 59.6°F15.3°C 33% 8.0 mph WSW12.9 kmh WSW 18.0 mph29.0 kmh 29.68 in1005.1 mb 0.00 in0.0 mm 0.00 in0.0 mm 0.00 in0.0 mm
06:15 PM 92.8°F33.8°C 59.5°F15.3°C 33% 6.0 mph WSW9.7 kmh WSW 16.0 mph25.7 kmh 29.69 in1005.4 mb 0.00 in0.0 mm 0.00 in0.0 mm 0.00 in0.0 mm
06:20 PM 92.8°F33.8°C 59.5°F15.3°C 33% 5.0 mph WSW8.0 kmh WSW 10.0 mph16.1 kmh 29.69 in1005.4 mb 0.00 in0.0 mm 0.00 in0.0 mm 0.00 in0.0 mm
06:25 PM 92.7°F33.7°C 59.4°F15.2°C 33% 5.0 mph W8.0 kmh W 10.0 mph16.1 kmh 29.69 in1005.4 mb 0.00 in0.0 mm 0.00 in0.0 mm 0.00 in0.0 mm
06:30 PM 92.6°F33.7°C 59.3°F15.2°C 33% 3.0 mph W4.8 kmh W 10.0 mph16.1 kmh 29.69 in1005.4 mb 0.00 in0.0 mm 0.00 in0.0 mm 0.00 in0.0 mm
06:35 PM 92.2°F33.4°C 58.9°F14.9°C 33% 4.0 mph WNW6.4 kmh WNW 12.0 mph19.3 kmh 29.69 in1005.4 mb 0.00 in0.0 mm 0.00 in0.0 mm 0.00 in0.0 mm
06:40 PM 91.9°F33.3°C 58.7°F14.8°C 33% 6.0 mph W9.7 kmh W 12.0 mph19.3 kmh 29.69 in1005.4 mb 0.00 in0.0 mm 0.00 in0.0 mm 0.00 in0.0 mm
06:45 PM 91.4°F33.0°C 59.1°F15.1°C 34% 6.0 mph WSW9.7 kmh WSW 10.0 mph16.1 kmh 29.70 in1005.8 mb 0.00 in0.0 mm 0.00 in0.0 mm 0.00 in0.0 mm
06:50 PM 91.0°F32.8°C 58.7°F14.8°C 34% 6.0 mph WSW9.7 kmh WSW 10.0 mph16.1 kmh 29.70 in1005.8 mb 0.00 in0.0 mm 0.00 in0.0 mm 0.00 in0.0 mm
06:55 PM 90.8°F32.7°C 59.4°F15.2°C 35% 5.0 mph WSW8.0 kmh WSW 11.0 mph17.7 kmh 29.70 in1005.8 mb 0.00 in0.0 mm 0.00 in0.0 mm 0.00 in0.0 mm
07:00 PM 90.6°F32.6°C 60.0°F15.6°C 36% 5.0 mph WSW8.0 kmh WSW 11.0 mph17.7 kmh 29.71 in1006.1 mb 0.00 in0.0 mm 0.00 in0.0 mm 0.00 in0.0 mm
07:05 PM 90.4°F32.4°C 60.6°F15.9°C 37% 5.0 mph WSW8.0 kmh WSW 9.0 mph14.5 kmh 29.71 in1006.1 mb 0.00 in0.0 mm 0.00 in0.0 mm 0.00 in0.0 mm
07:10 PM 90.2°F32.3°C 60.4°F15.8°C 37% 4.0 mph WSW6.4 kmh WSW 9.0 mph14.5 kmh 29.71 in1006.1 mb 0.00 in0.0 mm 0.00 in0.0 mm 0.00 in0.0 mm
07:15 PM 90.1°F32.3°C 60.3°F15.7°C 37% 3.0 mph W4.8 kmh W 6.0 mph9.7 kmh 29.71 in1006.1 mb 0.00 in0.0 mm 0.00 in0.0 mm 0.00 in0.0 mm
07:20 PM 90.1°F32.3°C 60.3°F15.7°C 37% 3.0 mph W4.8 kmh W 7.0 mph11.3 kmh 29.72 in1006.4 mb 0.00 in0.0 mm 0.00 in0.0 mm 0.00 in0.0 mm
07:25 PM 89.9°F32.2°C 60.9°F16.1°C 38% 2.0 mph WNW3.2 kmh WNW 7.0 mph11.3 kmh 29.72 in1006.4 mb 0.00 in0.0 mm 0.00 in0.0 mm 0.00 in0.0 mm
07:30 PM 89.8°F32.1°C 60.8°F16.0°C 38% 2.0 mph WNW3.2 kmh WNW 6.0 mph9.7 kmh 29.72 in1006.4 mb 0.00 in0.0 mm 0.00 in0.0 mm 0.00 in0.0 mm
07:35 PM 89.7°F32.1°C 60.7°F15.9°C 38% 2.0 mph W3.2 kmh W 6.0 mph9.7 kmh 29.72 in1006.4 mb 0.00 in0.0 mm 0.00 in0.0 mm 0.00 in0.0 mm
07:40 PM 89.6°F32.0°C 60.6°F15.9°C 38% 2.0 mph W3.2 kmh W 5.0 mph8.0 kmh 29.72 in1006.4 mb 0.00 in0.0 mm 0.00 in0.0 mm 0.00 in0.0 mm
07:45 PM 89.5°F31.9°C 60.5°F15.8°C 38% 2.0 mph W3.2 kmh W 5.0 mph8.0 kmh 29.72 in1006.4 mb 0.00 in0.0 mm 0.00 in0.0 mm 0.00 in0.0 mm
07:50 PM 89.3°F31.8°C 60.4°F15.8°C 38% 2.0 mph NNW3.2 kmh NNW 5.0 mph8.0 kmh 29.72 in1006.4 mb 0.00 in0.0 mm 0.00 in0.0 mm 0.00 in0.0 mm
07:55 PM 89.2°F31.8°C 60.3°F15.7°C 38% 2.0 mph N3.2 kmh N 5.0 mph8.0 kmh 29.72 in1006.4 mb 0.00 in0.0 mm 0.00 in0.0 mm 0.00 in0.0 mm
08:00 PM 89.1°F31.7°C 60.9°F16.1°C 39% 1.0 mph N1.6 kmh N 3.0 mph4.8 kmh 29.72 in1006.4 mb 0.00 in0.0 mm 0.00 in0.0 mm 0.00 in0.0 mm
08:05 PM 89.0°F31.7°C 60.8°F16.0°C 39% 2.0 mph N3.2 kmh N 3.0 mph4.8 kmh 29.72 in1006.4 mb 0.00 in0.0 mm 0.00 in0.0 mm 0.00 in0.0 mm
08:10 PM 88.8°F31.6°C 60.7°F15.9°C 39% 1.0 mph N1.6 kmh N 3.0 mph4.8 kmh 29.73 in1006.8 mb 0.00 in0.0 mm 0.00 in0.0 mm 0.00 in0.0 mm
08:15 PM 88.7°F31.5°C 60.6°F15.9°C 39% 1.0 mph N1.6 kmh N 2.0 mph3.2 kmh 29.73 in1006.8 mb 0.00 in0.0 mm 0.00 in0.0 mm 0.00 in0.0 mm
08:20 PM 88.6°F31.4°C 60.5°F15.8°C 39% 1.0 mph N1.6 kmh N 3.0 mph4.8 kmh 29.74 in1007.1 mb 0.00 in0.0 mm 0.00 in0.0 mm 0.00 in0.0 mm
08:25 PM 88.6°F31.4°C 60.5°F15.8°C 39% 2.0 mph N3.2 kmh N 3.0 mph4.8 kmh 29.74 in1007.1 mb 0.00 in0.0 mm 0.00 in0.0 mm 0.00 in0.0 mm
08:30 PM 88.5°F31.4°C 60.4°F15.8°C 39% 1.0 mph N1.6 kmh N 4.0 mph6.4 kmh 29.74 in1007.1 mb 0.00 in0.0 mm 0.00 in0.0 mm 0.00 in0.0 mm
08:35 PM 88.4°F31.3°C 59.6°F15.3°C 38% 2.0 mph NW3.2 kmh NW 4.0 mph6.4 kmh 29.74 in1007.1 mb 0.00 in0.0 mm 0.00 in0.0 mm 0.00 in0.0 mm
08:40 PM 88.3°F31.3°C 59.5°F15.3°C 38% 2.0 mph W3.2 kmh W 6.0 mph9.7 kmh 29.75 in1007.5 mb 0.00 in0.0 mm 0.00 in0.0 mm 0.00 in0.0 mm
08:45 PM 88.3°F31.3°C 59.5°F15.3°C 38% 3.0 mph WSW4.8 kmh WSW 6.0 mph9.7 kmh 29.75 in1007.5 mb 0.00 in0.0 mm 0.00 in0.0 mm 0.00 in0.0 mm
08:50 PM 88.3°F31.3°C 59.5°F15.3°C 38% 3.0 mph W4.8 kmh W 6.0 mph9.7 kmh 29.74 in1007.1 mb 0.00 in0.0 mm 0.00 in0.0 mm 0.00 in0.0 mm
08:55 PM 88.2°F31.2°C 59.4°F15.2°C 38% 2.0 mph W3.2 kmh W 6.0 mph9.7 kmh 29.75 in1007.5 mb 0.00 in0.0 mm 0.00 in0.0 mm 0.00 in0.0 mm
09:00 PM 88.2°F31.2°C 59.4°F15.2°C 38% 3.0 mph WNW4.8 kmh WNW 6.0 mph9.7 kmh 29.75 in1007.5 mb 0.00 in0.0 mm 0.00 in0.0 mm 0.00 in0.0 mm
09:05 PM 88.1°F31.2°C 60.0°F15.6°C 39% 2.0 mph W3.2 kmh W 7.0 mph11.3 kmh 29.75 in1007.5 mb 0.00 in0.0 mm 0.00 in0.0 mm 0.00 in0.0 mm
09:10 PM 88.0°F31.1°C 59.9°F15.5°C 39% 2.0 mph WSW3.2 kmh WSW 7.0 mph11.3 kmh 29.75 in1007.5 mb 0.00 in0.0 mm 0.00 in0.0 mm 0.00 in0.0 mm
09:15 PM 87.9°F31.1°C 59.8°F15.4°C 39% 2.0 mph WSW3.2 kmh WSW 4.0 mph6.4 kmh 29.75 in1007.5 mb 0.00 in0.0 mm 0.00 in0.0 mm 0.00 in0.0 mm
09:20 PM 87.8°F31.0°C 59.8°F15.4°C 39% 2.0 mph W3.2 kmh W 4.0 mph6.4 kmh 29.75 in1007.5 mb 0.00 in0.0 mm 0.00 in0.0 mm 0.00 in0.0 mm
09:25 PM 87.7°F30.9°C 60.4°F15.8°C 40% 2.0 mph WNW3.2 kmh WNW 4.0 mph6.4 kmh 29.75 in1007.5 mb 0.00 in0.0 mm 0.00 in0.0 mm 0.00 in0.0 mm
09:30 PM 87.6°F30.9°C 60.3°F15.7°C 40% 2.0 mph WNW3.2 kmh WNW 3.0 mph4.8 kmh 29.75 in1007.5 mb 0.00 in0.0 mm 0.00 in0.0 mm 0.00 in0.0 mm
09:35 PM 87.5°F30.8°C 60.2°F15.7°C 40% 2.0 mph WNW3.2 kmh WNW 3.0 mph4.8 kmh 29.75 in1007.5 mb 0.00 in0.0 mm 0.00 in0.0 mm 0.00 in0.0 mm
09:40 PM 87.3°F30.7°C 60.0°F15.6°C 40% 1.0 mph WNW1.6 kmh WNW 3.0 mph4.8 kmh 29.75 in1007.5 mb 0.00 in0.0 mm 0.00 in0.0 mm 0.00 in0.0 mm
09:45 PM 87.2°F30.7°C 60.6°F15.9°C 41% 1.0 mph WNW1.6 kmh WNW 3.0 mph4.8 kmh 29.75 in1007.5 mb 0.00 in0.0 mm 0.00 in0.0 mm 0.00 in0.0 mm
09:50 PM 87.1°F30.6°C 60.5°F15.8°C 41% 1.0 mph WNW1.6 kmh WNW 3.0 mph4.8 kmh 29.75 in1007.5 mb 0.00 in0.0 mm 0.00 in0.0 mm 0.00 in0.0 mm
09:55 PM 86.9°F30.5°C 60.4°F15.8°C 41% 1.0 mph WNW1.6 kmh WNW 3.0 mph4.8 kmh 29.75 in1007.5 mb 0.00 in0.0 mm 0.00 in0.0 mm 0.00 in0.0 mm
10:00 PM 86.9°F30.5°C 60.4°F15.8°C 41% 1.0 mph WNW1.6 kmh WNW 3.0 mph4.8 kmh 29.75 in1007.5 mb 0.00 in0.0 mm 0.00 in0.0 mm 0.00 in0.0 mm
10:05 PM 86.7°F30.4°C 60.2°F15.7°C 41% 1.0 mph WNW1.6 kmh WNW 3.0 mph4.8 kmh 29.75 in1007.5 mb 0.00 in0.0 mm 0.00 in0.0 mm 0.00 in0.0 mm
10:10 PM 86.6°F30.3°C 60.8°F16.0°C 42% 2.0 mph W3.2 kmh W 3.0 mph4.8 kmh 29.75 in1007.5 mb 0.00 in0.0 mm 0.00 in0.0 mm 0.00 in0.0 mm
10:15 PM 86.5°F30.3°C 60.7°F15.9°C 42% 1.0 mph WSW1.6 kmh WSW 3.0 mph4.8 kmh 29.75 in1007.5 mb 0.00 in0.0 mm 0.00 in0.0 mm 0.00 in0.0 mm
10:20 PM 86.4°F30.2°C 60.6°F15.9°C 42% 1.0 mph WSW1.6 kmh WSW 3.0 mph4.8 kmh 29.75 in1007.5 mb 0.00 in0.0 mm 0.00 in0.0 mm 0.00 in0.0 mm
10:25 PM 86.4°F30.2°C 60.6°F15.9°C 42% 1.0 mph WSW1.6 kmh WSW 3.0 mph4.8 kmh 29.75 in1007.5 mb 0.00 in0.0 mm 0.00 in0.0 mm 0.00 in0.0 mm
10:30 PM 86.4°F30.2°C 60.6°F15.9°C 42% 1.0 mph WSW1.6 kmh WSW 3.0 mph4.8 kmh 29.75 in1007.5 mb 0.00 in0.0 mm 0.00 in0.0 mm 0.00 in0.0 mm
10:35 PM 86.3°F30.2°C 60.5°F15.8°C 42% 1.0 mph WSW1.6 kmh WSW 3.0 mph4.8 kmh 29.75 in1007.5 mb 0.00 in0.0 mm 0.00 in0.0 mm 0.00 in0.0 mm
10:40 PM 86.3°F30.2°C 60.5°F15.8°C 42% 1.0 mph WSW1.6 kmh WSW 2.0 mph3.2 kmh 29.75 in1007.5 mb 0.00 in0.0 mm 0.00 in0.0 mm 0.00 in0.0 mm
10:45 PM 86.2°F30.1°C 60.4°F15.8°C 42% 1.0 mph WSW1.6 kmh WSW 2.0 mph3.2 kmh 29.75 in1007.5 mb 0.00 in0.0 mm 0.00 in0.0 mm 0.00 in0.0 mm
10:50 PM 86.2°F30.1°C 61.1°F16.2°C 43% Calm Calm 1.0 mph1.6 kmh 29.75 in1007.5 mb 0.00 in0.0 mm 0.00 in0.0 mm 0.00 in0.0 mm
10:55 PM 86.1°F30.1°C 61.0°F16.1°C 43% 1.0 mph WSW1.6 kmh WSW 2.0 mph3.2 kmh 29.74 in1007.1 mb 0.00 in0.0 mm 0.00 in0.0 mm 0.00 in0.0 mm
11:00 PM 86.0°F30.0°C 60.9°F16.1°C 43% 2.0 mph WSW3.2 kmh WSW 3.0 mph4.8 kmh 29.75 in1007.5 mb 0.00 in0.0 mm 0.00 in0.0 mm 0.00 in0.0 mm
11:05 PM 85.8°F29.9°C 61.4°F16.3°C 44% 2.0 mph WSW3.2 kmh WSW 4.0 mph6.4 kmh 29.75 in1007.5 mb 0.00 in0.0 mm 0.00 in0.0 mm 0.00 in0.0 mm
11:10 PM 85.7°F29.8°C 61.3°F16.3°C 44% 2.0 mph WSW3.2 kmh WSW 4.0 mph6.4 kmh 29.75 in1007.5 mb 0.00 in0.0 mm 0.00 in0.0 mm 0.00 in0.0 mm
11:15 PM 85.6°F29.8°C 61.2°F16.2°C 44% 1.0 mph WSW1.6 kmh WSW 4.0 mph6.4 kmh 29.75 in1007.5 mb 0.00 in0.0 mm 0.00 in0.0 mm 0.00 in0.0 mm
11:20 PM 85.5°F29.7°C 61.7°F16.5°C 45% 1.0 mph WSW1.6 kmh WSW 2.0 mph3.2 kmh 29.75 in1007.5 mb 0.00 in0.0 mm 0.00 in0.0 mm 0.00 in0.0 mm
11:25 PM 85.4°F29.7°C 61.6°F16.4°C 45% 1.0 mph WSW1.6 kmh WSW 2.0 mph3.2 kmh 29.75 in1007.5 mb 0.00 in0.0 mm 0.00 in0.0 mm 0.00 in0.0 mm
11:30 PM 85.3°F29.6°C 61.6°F16.4°C 45% 1.0 mph WSW1.6 kmh WSW 2.0 mph3.2 kmh 29.75 in1007.5 mb 0.00 in0.0 mm 0.00 in0.0 mm 0.00 in0.0 mm
11:35 PM 85.1°F29.5°C 61.4°F16.3°C 45% 1.0 mph WSW1.6 kmh WSW 2.0 mph3.2 kmh 29.74 in1007.1 mb 0.00 in0.0 mm 0.00 in0.0 mm 0.00 in0.0 mm
11:40 PM 85.0°F29.4°C 61.3°F16.3°C 45% Calm Calm 1.0 mph1.6 kmh 29.75 in1007.5 mb 0.00 in0.0 mm 0.00 in0.0 mm 0.00 in0.0 mm
11:45 PM 84.9°F29.4°C 61.2°F16.2°C 45% Calm Calm 1.0 mph1.6 kmh 29.75 in1007.5 mb 0.00 in0.0 mm 0.00 in0.0 mm 0.00 in0.0 mm
11:50 PM 84.8°F29.3°C 61.7°F16.5°C 46% Calm Calm 1.0 mph1.6 kmh 29.75 in1007.5 mb 0.00 in0.0 mm 0.00 in0.0 mm 0.00 in0.0 mm
11:55 PM 84.6°F29.2°C 61.5°F16.4°C 46% Calm Calm 2.0 mph3.2 kmh 29.75 in1007.5 mb 0.00 in0.0 mm 0.00 in0.0 mm 0.00 in0.0 mm